createdAt,value
2019-05-13T00:00:34.257Z,97053.23
2019-05-13T00:03:03.757Z,97053.51
2019-05-13T00:05:33.990Z,97045.99
2019-05-13T00:08:03.679Z,97053.14
2019-05-13T00:10:35.047Z,97051.15
2019-05-13T00:13:04.426Z,97055.00
2019-05-13T00:15:34.188Z,97054.81
2019-05-13T00:18:03.990Z,97057.27
2019-05-13T00:20:34.063Z,97060.75
2019-05-13T00:23:03.891Z,97056.51
2019-05-13T00:25:35.509Z,97061.99
2019-05-13T00:28:04.404Z,97057.24
2019-05-13T00:30:34.193Z,97067.88
2019-05-13T00:33:03.995Z,97071.93
2019-05-13T00:35:33.852Z,97073.53
2019-05-13T00:38:03.906Z,97076.70
2019-05-13T00:40:34.002Z,97071.61
2019-05-13T00:43:03.992Z,97070.02
2019-05-13T00:45:33.893Z,97067.98
2019-05-13T00:48:04.673Z,97064.60
2019-05-13T00:50:35.291Z,97071.92
2019-05-13T00:53:04.614Z,97076.09
2019-05-13T00:55:34.695Z,97068.98
2019-05-13T00:58:04.863Z,97070.36
2019-05-13T01:00:34.095Z,97071.61
2019-05-13T01:03:03.960Z,97075.53
2019-05-13T01:05:33.993Z,97075.15
2019-05-13T01:08:05.840Z,97069.52
2019-05-13T01:10:34.849Z,97063.31
2019-05-13T01:13:04.657Z,97061.98
2019-05-13T01:15:34.635Z,97064.38
2019-05-13T01:18:04.169Z,97071.86
2019-05-13T01:20:34.776Z,97077.72
2019-05-13T01:23:04.059Z,97074.59
2019-05-13T01:25:34.343Z,97073.65
2019-05-13T01:28:04.619Z,97072.80
2019-05-13T01:30:34.589Z,97076.30
2019-05-13T01:33:04.323Z,97077.34
2019-05-13T01:35:34.228Z,97071.69
2019-05-13T01:38:04.544Z,97070.01
2019-05-13T01:40:34.886Z,97072.79
2019-05-13T01:43:04.218Z,97078.43
2019-05-13T01:45:33.861Z,97078.98
2019-05-13T01:48:07.237Z,97071.33
2019-05-13T01:50:34.056Z,97081.02
2019-05-13T01:53:04.314Z,97077.20
2019-05-13T01:55:34.139Z,97081.37
2019-05-13T01:58:04.206Z,97079.85
2019-05-13T02:00:35.395Z,97087.39
2019-05-13T02:03:04.376Z,97083.16
2019-05-13T02:05:37.013Z,97083.73
2019-05-13T02:08:05.750Z,97080.33
2019-05-13T02:10:54.317Z,97085.25
2019-05-13T02:13:24.346Z,97084.52
2019-05-13T02:15:55.574Z,97086.91
2019-05-13T02:18:24.839Z,97089.98
2019-05-13T02:20:55.382Z,97097.80
2019-05-13T02:23:24.370Z,97088.03
2019-05-13T02:25:54.320Z,97090.13
2019-05-13T02:28:33.586Z,97088.58
2019-05-13T02:31:02.266Z,97092.60
2019-05-13T02:33:33.977Z,97092.83
2019-05-13T02:36:02.889Z,97092.66
2019-05-13T02:38:35.474Z,97090.80
2019-05-13T02:41:03.057Z,97090.34
2019-05-13T02:43:33.334Z,97092.27
2019-05-13T02:46:04.525Z,97097.40
2019-05-13T02:48:35.023Z,97103.54
2019-05-13T02:51:04.159Z,97107.08
2019-05-13T02:53:33.735Z,97105.59
2019-05-13T02:56:03.286Z,97113.69
2019-05-13T02:58:33.270Z,97111.59
2019-05-13T03:01:03.556Z,97115.23
2019-05-13T03:03:33.154Z,97112.32
2019-05-13T03:06:02.891Z,97120.78
2019-05-13T03:08:41.046Z,97125.91
2019-05-13T03:11:03.317Z,97121.34
2019-05-13T03:13:32.858Z,97122.03
2019-05-13T03:16:15.476Z,97127.14
2019-05-13T03:18:45.147Z,97130.72
2019-05-13T03:21:13.807Z,97130.41
2019-05-13T03:23:43.946Z,97128.52
2019-05-13T03:26:13.516Z,97137.25
2019-05-13T03:28:43.977Z,97137.83
2019-05-13T03:31:16.661Z,97146.39
2019-05-13T03:33:46.698Z,97138.49
2019-05-13T03:36:16.379Z,97138.25
2019-05-13T03:39:01.827Z,97138.55
2019-05-13T03:41:16.965Z,97141.25
2019-05-13T03:43:46.485Z,97135.30
2019-05-13T03:46:15.318Z,97138.50
2019-05-13T03:48:45.396Z,97131.97
2019-05-13T03:51:14.255Z,97131.14
2019-05-13T03:53:43.808Z,97137.84
2019-05-13T03:56:13.265Z,97130.77
2019-05-13T03:58:43.651Z,97131.45
2019-05-13T04:01:13.533Z,97135.56
2019-05-13T04:03:44.060Z,97133.21
2019-05-13T04:06:14.059Z,97137.73
2019-05-13T04:08:43.795Z,97128.91
2019-05-13T04:11:13.250Z,97129.77
2019-05-13T04:13:43.079Z,97120.41
2019-05-13T04:16:13.444Z,97124.73
2019-05-13T04:18:44.604Z,97122.17
2019-05-13T04:21:13.709Z,97121.33
2019-05-13T04:23:43.105Z,97127.37
2019-05-13T04:26:14.730Z,97123.66
2019-05-13T04:28:43.552Z,97118.09
2019-05-13T04:31:14.528Z,97109.73
2019-05-13T04:33:43.519Z,97100.62
2019-05-13T04:36:13.693Z,97109.74
2019-05-13T04:38:44.129Z,97116.43
2019-05-13T04:41:13.147Z,97124.53
2019-05-13T04:43:43.544Z,97120.39
2019-05-13T04:46:14.275Z,97126.14
2019-05-13T04:48:44.622Z,97127.95
2019-05-13T04:51:14.276Z,97120.28
2019-05-13T04:53:43.743Z,97120.69
2019-05-13T04:56:13.597Z,97117.81
2019-05-13T04:58:43.478Z,97117.59
2019-05-13T05:01:17.727Z,97120.80
2019-05-13T05:03:55.294Z,97130.97
2019-05-13T05:06:32.852Z,97123.56
2019-05-13T05:09:08.765Z,97124.03
2019-05-13T05:11:56.500Z,97128.80
2019-05-13T05:14:46.625Z,97132.09
2019-05-13T05:17:24.485Z,97124.05
2019-05-13T05:20:07.923Z,97126.71
2019-05-13T05:22:57.456Z,97130.44
2019-05-13T05:26:01.255Z,97131.32
2019-05-13T05:28:41.234Z,97139.34
2019-05-13T05:31:18.270Z,97130.41
2019-05-13T05:33:56.295Z,97125.33
2019-05-13T05:36:52.697Z,97123.73
2019-05-13T05:39:28.404Z,97123.31
2019-05-13T05:42:02.175Z,97134.00
2019-05-13T05:44:32.400Z,97139.18
2019-05-13T05:47:03.360Z,97143.75
2019-05-13T05:49:32.636Z,97148.89
2019-05-13T05:52:04.350Z,97137.80
2019-05-13T05:54:35.907Z,97139.59
2019-05-13T05:57:06.005Z,97139.45
2019-05-13T05:59:35.656Z,97141.73
2019-05-13T06:02:05.339Z,97143.45
2019-05-13T06:04:34.000Z,97133.04
2019-05-13T06:07:03.595Z,97125.75
2019-05-13T06:09:32.766Z,97124.32
2019-05-13T06:12:02.091Z,97126.03
2019-05-13T06:14:32.669Z,97136.30
2019-05-13T06:17:02.708Z,97139.11
2019-05-13T06:19:32.186Z,97138.68
2019-05-13T06:22:02.359Z,97133.04
2019-05-13T06:24:31.923Z,97138.12
2019-05-13T06:27:01.812Z,97136.73
2019-05-13T06:29:31.641Z,97140.66
2019-05-13T06:32:15.055Z,97139.48
2019-05-13T06:34:33.139Z,97137.25
2019-05-13T06:37:02.156Z,97133.75
2019-05-13T06:39:31.974Z,97136.25
2019-05-13T06:42:03.033Z,97131.16
2019-05-13T06:44:31.987Z,97145.19
2019-05-13T06:47:02.677Z,97145.22
2019-05-13T06:49:32.226Z,97144.56
2019-05-13T06:52:01.952Z,97145.83
2019-05-13T06:54:33.063Z,97152.32
2019-05-13T06:57:04.348Z,97155.27
2019-05-13T06:59:32.106Z,97162.50
2019-05-13T07:02:02.113Z,97164.55
2019-05-13T07:04:32.719Z,97150.81
2019-05-13T07:07:12.251Z,97157.90
2019-05-13T07:09:32.703Z,97157.05
2019-05-13T07:12:03.171Z,97158.19
2019-05-13T07:14:32.642Z,97153.60
2019-05-13T07:17:02.118Z,97156.30
2019-05-13T07:19:32.222Z,97157.48
2019-05-13T07:22:02.723Z,97146.37
2019-05-13T07:24:32.433Z,97138.16
2019-05-13T07:27:02.032Z,97133.37
2019-05-13T07:29:32.462Z,97134.22
2019-05-13T07:32:01.961Z,97125.86
2019-05-13T07:34:33.623Z,97129.89
2019-05-13T07:37:02.354Z,97135.26
2019-05-13T07:39:32.943Z,97131.48
2019-05-13T07:42:05.271Z,97136.36
2019-05-13T07:44:32.643Z,97136.36
2019-05-13T07:47:03.300Z,97118.58
2019-05-13T07:49:32.194Z,97119.30
2019-05-13T07:52:01.813Z,97124.37
2019-05-13T07:54:33.014Z,97103.94
2019-05-13T07:57:02.185Z,97094.67
2019-05-13T07:59:32.070Z,97094.67
2019-05-13T08:02:02.207Z,97111.38
2019-05-13T08:04:33.380Z,97113.27
2019-05-13T08:07:02.490Z,97118.23
2019-05-13T08:09:32.162Z,97125.55
2019-05-13T08:12:10.240Z,97129.30
2019-05-13T08:14:34.063Z,97126.35
2019-05-13T08:17:03.072Z,97113.28
2019-05-13T08:19:32.794Z,97112.28
2019-05-13T08:22:02.400Z,97113.49
2019-05-13T08:24:31.836Z,97122.17
2019-05-13T08:27:02.113Z,97126.55
2019-05-13T08:29:32.893Z,97121.91
2019-05-13T08:32:02.976Z,97127.78
2019-05-13T08:34:33.181Z,97135.80
2019-05-13T08:37:03.443Z,97138.23
2019-05-13T08:39:38.086Z,97145.06
2019-05-13T08:42:15.572Z,97140.43
2019-05-13T08:44:34.355Z,97142.33
2019-05-13T08:47:03.605Z,97140.78
2019-05-13T08:49:32.763Z,97146.27
2019-05-13T08:52:02.037Z,97152.08
2019-05-13T08:54:32.762Z,97151.14
2019-05-13T08:57:02.914Z,97148.29
2019-05-13T08:59:32.308Z,97148.80
2019-05-13T09:02:04.082Z,97151.99
2019-05-13T09:04:32.809Z,97147.91
2019-05-13T09:07:02.634Z,97141.50
2019-05-13T09:09:32.270Z,97142.72
2019-05-13T09:12:02.598Z,97139.39
2019-05-13T09:14:32.506Z,97142.50
2019-05-13T09:17:01.949Z,97152.47
2019-05-13T09:19:32.264Z,97157.17
2019-05-13T09:22:02.981Z,97167.77
2019-05-13T09:24:37.340Z,97178.20
2019-05-13T09:27:02.372Z,97185.91
2019-05-13T09:29:32.235Z,97196.73
2019-05-13T09:32:03.752Z,97201.70
2019-05-13T09:34:33.188Z,97200.14
2019-05-13T09:37:02.695Z,97184.77
2019-05-13T09:39:32.487Z,97181.84
2019-05-13T09:44:32.852Z,97134.08
2019-05-13T09:47:02.808Z,97118.08
2019-05-13T09:49:32.991Z,97111.47
2019-05-13T09:52:02.184Z,97110.17
2019-05-13T09:54:32.757Z,97123.36
2019-05-13T09:57:01.985Z,97126.92
2019-05-13T09:59:31.786Z,97134.14
2019-05-13T10:02:03.136Z,97135.87
2019-05-13T10:04:32.019Z,97150.75
2019-05-13T10:07:02.138Z,97148.23
2019-05-13T10:09:32.691Z,97149.85
2019-05-13T10:12:03.178Z,97148.59
2019-05-13T10:14:32.903Z,97141.20
2019-05-13T10:17:06.090Z,97149.02
2019-05-13T10:19:32.776Z,97143.55
2019-05-13T10:22:01.892Z,97143.74
2019-05-13T10:24:32.696Z,97140.63
2019-05-13T10:27:02.588Z,97131.08
2019-05-13T10:29:32.236Z,97122.17
2019-05-13T10:32:02.707Z,97113.50
2019-05-13T10:34:32.491Z,97110.52
2019-05-13T10:37:02.777Z,97119.97
2019-05-13T10:39:31.704Z,97122.87
2019-05-13T10:42:03.019Z,97127.86
2019-05-13T10:44:30.838Z,97129.33
2019-05-13T10:47:01.982Z,97116.97
2019-05-13T10:49:32.759Z,97114.61
2019-05-13T10:52:02.877Z,97114.59
2019-05-13T10:54:32.509Z,97119.71
2019-05-13T10:57:03.947Z,97116.07
2019-05-13T10:59:31.629Z,97116.84
2019-05-13T11:02:02.156Z,97101.18
2019-05-13T11:04:32.698Z,97111.75
2019-05-13T11:07:03.017Z,97116.23
2019-05-13T11:09:32.925Z,97115.81
2019-05-13T11:12:02.203Z,97106.79
2019-05-13T11:14:32.269Z,97104.92
2019-05-13T11:17:01.727Z,97113.27
2019-05-13T11:19:36.163Z,97123.39
2019-05-13T11:22:03.379Z,97121.48
2019-05-13T11:24:32.666Z,97120.78
2019-05-13T11:27:02.825Z,97116.38
2019-05-13T11:29:32.653Z,97117.07
2019-05-13T11:32:03.237Z,97113.37
2019-05-13T11:34:32.882Z,97111.73
2019-05-13T11:37:03.654Z,97117.64
2019-05-13T11:39:32.851Z,97121.52
2019-05-13T11:42:02.270Z,97118.39
2019-05-13T11:44:32.248Z,97123.88
2019-05-13T11:47:02.434Z,97123.62
2019-05-13T11:49:31.838Z,97123.64
2019-05-13T11:54:31.117Z,97121.00
2019-05-13T11:57:02.564Z,97121.08
2019-05-13T11:59:32.745Z,97114.30
2019-05-13T12:02:07.434Z,97120.75
2019-05-13T12:04:49.216Z,97120.36
2019-05-13T12:07:17.872Z,97112.37
2019-05-13T12:09:46.525Z,97121.00
2019-05-13T12:12:30.488Z,97114.16
2019-05-13T12:15:22.474Z,97112.31
2019-05-13T12:17:24.781Z,97106.63
2019-05-13T12:20:20.823Z,97108.14
2019-05-13T12:22:53.810Z,97097.71
2019-05-13T12:25:22.631Z,97097.39
2019-05-13T12:28:07.427Z,97102.25
2019-05-13T12:30:44.386Z,97100.19
2019-05-13T12:33:13.673Z,97093.56
2019-05-13T12:35:42.412Z,97079.84
2019-05-13T12:38:13.428Z,97074.73
2019-05-13T12:40:43.109Z,97083.83
2019-05-13T12:43:13.455Z,97082.69
2019-05-13T12:45:43.553Z,97078.48
2019-05-13T12:48:13.923Z,97065.59
2019-05-13T12:50:44.252Z,97060.30
2019-05-13T12:53:13.070Z,97059.57
2019-05-13T12:55:41.740Z,97059.34
2019-05-13T12:58:12.166Z,97052.30
2019-05-13T13:00:45.022Z,97054.09
2019-05-13T13:03:13.738Z,97057.64
2019-05-13T13:05:43.322Z,97053.55
2019-05-13T13:08:24.702Z,97054.95
2019-05-13T13:10:46.570Z,97058.23
2019-05-13T13:13:51.584Z,97059.13
2019-05-13T13:15:52.928Z,97058.89
2019-05-13T13:18:22.426Z,97049.61
2019-05-13T13:21:00.295Z,97055.15
2019-05-13T13:23:23.716Z,97060.14
2019-05-13T13:25:56.669Z,97070.73
2019-05-13T13:30:53.505Z,97058.83
2019-05-13T13:33:22.299Z,97055.12
2019-05-13T13:35:59.563Z,97049.49
2019-05-13T13:38:25.318Z,97053.77
2019-05-13T13:43:24.911Z,97042.05
2019-05-13T13:46:07.544Z,97042.05
2019-05-13T13:48:25.726Z,97031.05
2019-05-13T13:50:56.522Z,97021.10
2019-05-13T13:53:26.455Z,97025.28
2019-05-13T13:55:56.159Z,97023.34
2019-05-13T13:58:25.888Z,97027.53
2019-05-13T14:01:05.834Z,97028.40
2019-05-13T14:03:25.085Z,97024.14
2019-05-13T14:05:54.287Z,97014.66
2019-05-13T14:06:25.319Z,97161.32
2019-05-13T14:06:29.233Z,97127.25
2019-05-13T14:06:58.554Z,97044.47
2019-05-13T14:07:09.010Z,97069.19
2019-05-13T14:08:23.580Z,97014.88
2019-05-13T14:10:52.407Z,97006.39
2019-05-13T14:13:21.941Z,96999.95
2019-05-13T14:15:52.779Z,97005.58
2019-05-13T14:18:26.552Z,97008.86
2019-05-13T14:20:52.888Z,97004.97
2019-05-13T14:23:22.076Z,97003.44
2019-05-13T14:25:52.961Z,97008.47
2019-05-13T14:28:23.016Z,97005.16
2019-05-13T14:30:51.653Z,97004.25
2019-05-13T14:33:20.324Z,96989.66
2019-05-13T14:35:48.971Z,96980.27
2019-05-13T14:38:17.756Z,96978.60
2019-05-13T14:40:51.847Z,96974.48
2019-05-13T14:43:22.970Z,96974.86
2019-05-13T14:45:53.027Z,96969.81
2019-05-13T14:48:22.371Z,96959.02
2019-05-13T14:50:52.316Z,96959.98
2019-05-13T14:53:32.397Z,96958.33
2019-05-13T14:56:02.962Z,96959.78
2019-05-13T14:58:45.199Z,96956.27
2019-05-13T15:01:19.770Z,96957.00
2019-05-13T15:03:48.900Z,96949.53
2019-05-13T15:06:17.664Z,96950.44
2019-05-13T15:08:46.492Z,96960.23
2019-05-13T15:11:16.860Z,96957.32
2019-05-13T15:13:47.219Z,96958.73
2019-05-13T15:16:17.551Z,96955.89
2019-05-13T15:18:46.215Z,96938.75
2019-05-13T15:21:14.784Z,96942.95
2019-05-13T15:23:46.023Z,96953.94
2019-05-13T15:26:14.699Z,96949.05
2019-05-13T15:28:43.549Z,96936.66
2019-05-13T15:31:12.219Z,96938.77
2019-05-13T15:33:41.584Z,96938.77
2019-05-13T15:36:11.917Z,96941.74
2019-05-13T15:38:46.092Z,96938.37
2019-05-13T15:41:15.869Z,96939.80
2019-05-13T15:43:46.667Z,96928.25
2019-05-13T15:46:15.578Z,96934.42
2019-05-13T15:48:44.162Z,96936.13
2019-05-13T15:51:12.807Z,96944.83
2019-05-13T15:53:43.684Z,96946.92
2019-05-13T15:56:12.506Z,96944.84
2019-05-13T15:58:43.590Z,96943.02
2019-05-13T16:01:12.521Z,96942.58
2019-05-13T16:03:41.693Z,96939.98
2019-05-13T16:06:17.542Z,96940.08
2019-05-13T16:08:57.175Z,96955.06
2019-05-13T16:11:16.615Z,96944.15
2019-05-13T16:13:54.040Z,96955.40
2019-05-13T16:16:32.283Z,96962.41
2019-05-13T16:19:00.549Z,96956.20
2019-05-13T16:21:32.168Z,96960.59
2019-05-13T16:24:02.657Z,96957.52
2019-05-13T16:26:32.073Z,96954.30
2019-05-13T16:29:02.161Z,96969.12
2019-05-13T16:31:31.853Z,96968.58
2019-05-13T16:34:01.565Z,96963.18
2019-05-13T16:36:36.298Z,96973.02
2019-05-13T16:39:08.581Z,96977.95
2019-05-13T16:41:42.603Z,96972.34
2019-05-13T16:44:11.977Z,96970.55
2019-05-13T16:46:44.848Z,96961.41
2019-05-13T16:49:13.583Z,96951.78
2019-05-13T16:51:42.826Z,96957.03
2019-05-13T16:54:11.785Z,96959.52
2019-05-13T16:56:42.039Z,96959.25
2019-05-13T16:59:11.019Z,96953.17
2019-05-13T17:01:41.829Z,96955.55
2019-05-13T17:04:12.364Z,96958.35
2019-05-13T17:06:41.642Z,96965.00
2019-05-13T17:09:11.525Z,96970.28
2019-05-13T17:11:41.510Z,96978.06
2019-05-13T17:14:10.574Z,96980.25
2019-05-13T17:16:41.186Z,96975.30
2019-05-13T17:19:11.852Z,96973.08
2019-05-13T17:21:41.092Z,96978.45
2019-05-13T17:24:12.319Z,96980.31
2019-05-13T17:26:41.786Z,96977.36
2019-05-13T17:29:12.032Z,96977.11
2019-05-13T17:31:41.782Z,96972.72
2019-05-13T17:34:12.080Z,96979.95
2019-05-13T17:36:41.948Z,96976.30
2019-05-13T17:39:12.486Z,96983.58
2019-05-13T17:41:41.630Z,96980.64
2019-05-13T17:44:11.649Z,96987.82
2019-05-13T17:46:41.795Z,96986.17
2019-05-13T17:49:11.854Z,96987.07
2019-05-13T17:51:42.591Z,96986.55
2019-05-13T17:54:11.972Z,96993.98
2019-05-13T17:56:42.723Z,96990.56
2019-05-13T17:59:11.706Z,96986.39
2019-05-13T18:01:41.261Z,96991.28
2019-05-13T18:04:11.870Z,96997.45
2019-05-13T18:06:41.725Z,97008.36
2019-05-13T18:09:11.930Z,97007.00
2019-05-13T18:11:45.305Z,97009.69
2019-05-13T18:14:14.093Z,97017.91
2019-05-13T18:16:42.798Z,97013.59
2019-05-13T18:19:12.119Z,97020.77
2019-05-13T18:22:05.188Z,97014.81
2019-05-13T18:24:35.183Z,97022.84
2019-05-13T18:29:55.655Z,97040.80
2019-05-13T18:32:26.216Z,97042.73
2019-05-13T18:34:56.293Z,97046.64
2019-05-13T18:37:25.986Z,97055.06
2019-05-13T18:39:54.750Z,97055.66
2019-05-13T18:42:23.410Z,97058.72
2019-05-13T18:44:56.310Z,97059.85
2019-05-13T18:47:25.056Z,97035.98
2019-05-13T18:49:53.704Z,97046.98
2019-05-13T18:52:22.500Z,97060.96
2019-05-13T18:54:51.476Z,97072.28
2019-05-13T18:57:21.323Z,97061.97
2019-05-13T18:59:52.076Z,97056.48
2019-05-13T19:02:21.446Z,97041.23
2019-05-13T19:04:52.121Z,97041.23
2019-05-13T19:07:21.888Z,97051.08
2019-05-13T19:09:52.272Z,97041.69
2019-05-13T19:12:21.949Z,97031.16
2019-05-13T19:14:51.674Z,97030.32
2019-05-13T19:17:22.345Z,97032.56
2019-05-13T19:19:51.530Z,97035.55
2019-05-13T19:22:21.445Z,97027.44
2019-05-13T19:24:51.808Z,97027.44
2019-05-13T19:27:23.793Z,97005.61
2019-05-13T19:29:52.518Z,96995.95
2019-05-13T19:32:21.985Z,96995.95
2019-05-13T19:34:53.782Z,96995.09
2019-05-13T19:37:22.665Z,96993.57
2019-05-13T19:39:51.504Z,96995.47
2019-05-13T19:42:22.369Z,96991.88
2019-05-13T19:44:51.200Z,96999.08
2019-05-13T19:47:20.168Z,97006.30
2019-05-13T19:49:49.044Z,97017.41
2019-05-13T19:52:17.775Z,97009.73
2019-05-13T19:54:46.454Z,97015.88
2019-05-13T19:57:15.080Z,96981.28
2019-05-13T19:59:43.912Z,97010.21
2019-05-13T20:02:12.589Z,97008.77
2019-05-13T20:04:41.565Z,96999.92
2019-05-13T20:07:11.900Z,96999.92
2019-05-13T20:09:42.547Z,97009.41
2019-05-13T20:12:11.332Z,97001.83
2019-05-13T20:14:40.114Z,97002.00
2019-05-13T20:17:09.285Z,97000.06
2019-05-13T20:19:47.604Z,96993.70
2019-05-13T20:22:08.542Z,96989.38
2019-05-13T20:24:37.300Z,96967.92
2019-05-13T20:27:05.948Z,96963.20
2019-05-13T20:29:34.656Z,96963.20
2019-05-13T20:32:03.408Z,96957.88
2019-05-13T20:34:32.228Z,96957.88
2019-05-13T20:37:02.089Z,96949.77
2019-05-13T20:39:32.071Z,96947.41
2019-05-13T20:42:01.578Z,96947.41
2019-05-13T20:44:31.341Z,96959.00
2019-05-13T20:47:01.550Z,96946.13
2019-05-13T20:49:31.223Z,96948.37
2019-05-13T20:52:00.200Z,96955.94
2019-05-13T20:54:31.207Z,96974.87
2019-05-13T20:57:01.788Z,96968.29
2019-05-13T20:59:31.998Z,96969.13
2019-05-13T21:02:02.251Z,96967.55
2019-05-13T21:04:32.207Z,96965.03
2019-05-13T21:07:02.089Z,96974.04
2019-05-13T21:09:31.671Z,96977.31
2019-05-13T21:12:01.744Z,96983.70
2019-05-13T21:14:32.018Z,96969.98
2019-05-13T21:17:01.462Z,96976.27
2019-05-13T21:19:39.265Z,96969.70
2019-05-13T21:22:00.373Z,96968.02
2019-05-13T21:24:29.013Z,96973.84
2019-05-13T21:26:57.721Z,96977.02
2019-05-13T21:29:26.388Z,96982.48
2019-05-13T21:31:55.095Z,96984.16
2019-05-13T21:34:23.756Z,96986.51
2019-05-13T21:36:52.440Z,96972.61
2019-05-13T21:39:21.485Z,96976.18
2019-05-13T21:41:51.935Z,96984.16
2019-05-13T21:44:20.704Z,96972.16
2019-05-13T21:46:51.416Z,96974.55
2019-05-13T21:49:21.345Z,96984.00
2019-05-13T21:51:52.045Z,96988.52
2019-05-13T21:54:20.459Z,96978.73
2019-05-13T21:56:51.468Z,96981.63
2019-05-13T21:59:23.063Z,96990.08
2019-05-13T22:01:52.079Z,96986.88
2019-05-13T22:04:21.504Z,96999.31
2019-05-13T22:06:50.368Z,96996.66
2019-05-13T22:09:19.026Z,96997.42
2019-05-13T22:11:47.716Z,96987.89
2019-05-13T22:14:16.353Z,96977.41
2019-05-13T22:16:45.089Z,96993.91
2019-05-13T22:19:13.791Z,96986.06
2019-05-13T22:21:42.579Z,96980.38
2019-05-13T22:24:11.717Z,96975.95
2019-05-13T22:26:42.038Z,96985.40
2019-05-13T22:29:11.082Z,96987.07
2019-05-13T22:31:41.821Z,96991.22
2019-05-13T22:34:12.138Z,96991.22
2019-05-13T22:36:40.451Z,97005.66
2019-05-13T22:39:11.347Z,97023.50
2019-05-13T22:41:41.887Z,97022.95
2019-05-13T22:44:11.663Z,97018.17
2019-05-13T22:46:41.310Z,97018.34
2019-05-13T22:49:11.684Z,97034.94
2019-05-13T22:51:41.326Z,97020.45
2019-05-13T22:54:11.892Z,96998.23
2019-05-13T22:56:41.254Z,96981.88
2019-05-13T22:59:12.262Z,96960.07
2019-05-13T23:01:41.913Z,96954.13
2019-05-13T23:04:11.451Z,96965.41
2019-05-13T23:06:41.023Z,96956.47
2019-05-13T23:09:12.237Z,96964.10
2019-05-13T23:11:41.784Z,96970.40
2019-05-13T23:14:13.372Z,96969.09
2019-05-13T23:16:42.171Z,96974.58
2019-05-13T23:19:11.212Z,96974.42
2019-05-13T23:21:41.846Z,96967.67
2019-05-13T23:24:11.342Z,96958.98
2019-05-13T23:26:42.274Z,96950.88
2019-05-13T23:29:10.653Z,96938.64
2019-05-13T23:31:41.329Z,96943.28
2019-05-13T23:34:11.844Z,96944.00
2019-05-13T23:36:42.273Z,96936.19
2019-05-13T23:39:11.623Z,96934.79
2019-05-13T23:41:41.635Z,96926.00
2019-05-13T23:44:24.217Z,96922.61
2019-05-13T23:46:42.066Z,96922.95
2019-05-13T23:49:11.834Z,96919.67
2019-05-13T23:51:41.359Z,96912.56
2019-05-13T23:54:12.261Z,96909.14
2019-05-13T23:56:41.692Z,96904.99
2019-05-13T23:59:15.716Z,96917.39
